Terminal Aerodrome Forecast
Issued by NWS

Home | Current Version | Previous Version | Graphics & Text | Print | Product List | Glossary Off
Versions: 1 2 3 4 5 6 7 8 9 10 11 12 13 14 15 16 17 18 19 20 21 22 23 24 25 26 27 28 29 30 31 32 33 34 35

000
FTUS43 KGRB 281728
TAFRHI
TAF
KRHI 281728Z 2818/2918 20008KT P6SM SCT060
     FM282000 20010G16KT P6SM VCSH BKN060
     FM290100 18006KT P6SM SCT250
     FM290700 17005KT P6SM BKN150
     FM291200 18007KT 6SM -RA BR BKN030 OVC040
     FM291400 20009KT 4SM -RA BR BKN009 OVC015=

USA.gov is the U.S. government's official web portal to all federal, state and local government web resources and services.